Kansas City, Missouri
Traffic Map
Current Weather Conditions
Kansas City, Missouri
Overcast Light Rain
Overcast
23°
Feels Like: 23°
Wind Chill: 23° Ceiling: 8000
Heat Index: 23° Visibility: 10mi
Dew Point: 22° Wind: 3mph
Humidity: 93% Direction: 20° (NNE)
Pressure: 30.11in Gusts: 0mph
Raw Report DataKMKC 310654Z 02003KT 10SM -RA BKN080 OVC100 23/22 A3011 RMK AO2 SLP187 P0001 T02330222
Traffic Incident Summary
Active as of:
Severity:
Category:
InformationThere was an issue retrieving the traffic information for this location. Please try a different location or try again shortly.
Advertisements
Track Severe Weather on mobile